Battle Creek, MI (49014)

6:21 AM EDT on September 05, 2015 (GMT -0400)
Wattles Park | | Change Station
CLOSE
Current Station
Personal Weather Station
Location: Battle Creek, MI
Elevation: 903 ft
Nearby Weather Stations

Elev 903 ft 42.32 °N, 85.11 °W | Updated 18 seconds ago

Clear
Clear
66.9 °F
Feels Like 66.9 °F
N
0.0
Wind Variable Wind from SSW
Gusts 1.0 mph

Today
High -- | Low -- °F
--% Chance of Precip.
Yesterday
High -- | Low -- °F
Precip. -- in
7:09 AM 8:07 PM
Waning Gibbous, 50% visible
Pressure 30.09 in
Visibility 8.0 miles
Clouds Few 4300 ft
Few 7000 ft
Dew Point 66 °F
Humidity 98%
Rainfall 0.00 in
Snow Depth Not available.
UV 0 out of 12
Pollen 8.40 out of 12
Air Quality Not available.
Flu Activity Not available.
METAR KBTL 050953Z 20004KT 8SM FEW043 FEW070 21/19 A3011 RMK AO2 SLP188 T02060189
Pressure 30.09 in
Visibility 8.0 miles
Clouds Few 4300 ft
Few 7000 ft
Dew Point 66 °F
Humidity 98%
Rainfall 0.00 in
Snow Depth Not available.
UV 0 out of 12
Pollen 8.40 out of 12
Air Quality Not available.
Flu Activity Not available.
METAR KBTL 050953Z 20004KT 8SM FEW043 FEW070 21/19 A3011 RMK AO2 SLP188 T02060189

10-Day Weather Forecast

×

Almanac

Astronomy

Sep. 05, 2015 Rise Set
Actual Time
Civil Twilight
Nautical Twilight
Astronomical Twilight
Moon
Length of Visible Light
Length of Day
Tomorrow will be .
, % of the Moon is Illuminated

Today's Extremes

State Highs State Lows

Community

WunderPhotos

Upload Photos

1,852,440 photos uploaded!

WunderBlogs® & News

Nearby

Air Quality

  Air Quality AQ Index Pollutant
Not available.

Snow Depth

Station Depth Elevation

Earthquake Activity

City Distance Mag. Time & Date
Minimum magnitude displayed is 2.5.

Coastal Water Temperatures

Place Temperature

Stations

Nearby Weather Stations

Station Location Temp. Windchill Dew Point Humidity Wind Precip. Elev Updated Type